Time;durP1;ratioP1;P1;durP2;ratioP2;P2;SDS_P1;SDS_P2;PMS_P1;PMS_P2;Temp;Humidity;BMP_temperature;BMP_pressure;BME280_temperature;BME280_humidity;BME280_pressure;Samples;Min_cycle;Max_cycle;Signal;HPM_P1;HPM_P2
2023/08/27 00:01:26;;;;;;;9.15;5.80;;;;;14.50;93692.00;;;;7398760;19;20173;-84
2023/08/27 00:04:01;;;;;;;13.93;5.97;;;;;14.50;93693.00;;;;7401373;19;20620;-83
2023/08/27 00:06:37;;;;;;;7.68;5.40;;;;;14.50;93678.00;;;;7397121;19;20161;-83
2023/08/27 00:09:17;;;;;;;8.50;5.00;;;;;14.50;93657.00;;;;7398540;19;20249;-84
2023/08/27 00:11:52;;;;;;;10.10;5.60;;;;;14.50;93657.00;;;;7399112;19;20136;-83
2023/08/27 00:14:22;;;;;;;9.95;5.50;;;;;14.50;93667.00;;;;7398759;19;20212;-83
2023/08/27 00:16:50;;;;;;;12.93;5.00;;;;;14.50;93664.00;;;;7397218;19;20204;-82
2023/08/27 00:19:25;;;;;;;14.43;4.82;;;;;14.50;93678.00;;;;7399231;19;20144;-83
2023/08/27 00:22:00;;;;;;;7.53;4.70;;;;;14.50;93698.00;;;;7398834;19;20116;-83
2023/08/27 00:24:34;;;;;;;11.00;5.75;;;;;14.60;93720.00;;;;7404955;19;20183;-83
2023/08/27 00:27:09;;;;;;;7.25;5.00;;;;;14.50;93732.00;;;;7404757;19;20152;-81
2023/08/27 00:29:43;;;;;;;11.35;4.85;;;;;14.60;93744.00;;;;7403893;19;20155;-80
2023/08/27 00:32:17;;;;;;;7.88;5.18;;;;;14.60;93742.00;;;;7403317;19;20552;-82
2023/08/27 00:34:53;;;;;;;7.85;5.28;;;;;14.50;93748.00;;;;7404647;19;20155;-82
2023/08/27 00:37:28;;;;;;;10.88;5.15;;;;;14.60;93740.00;;;;7404419;19;20161;-82
2023/08/27 00:40:03;;;;;;;8.63;5.32;;;;;14.60;93738.00;;;;7402402;19;20144;-82
2023/08/27 00:42:32;;;;;;;8.13;5.25;;;;;14.70;93723.00;;;;7403608;19;20133;-82
2023/08/27 00:45:06;;;;;;;8.88;5.70;;;;;14.70;93731.00;;;;7404887;19;20208;-82
2023/08/27 00:47:37;;;;;;;10.20;6.43;;;;;14.70;93718.00;;;;7401185;19;20125;-82
2023/08/27 00:50:14;;;;;;;9.90;4.78;;;;;14.60;93734.00;;;;7405761;19;20151;-82
2023/08/27 00:52:43;;;;;;;13.45;5.03;;;;;14.60;93728.00;;;;7405009;19;20133;-82
2023/08/27 00:55:19;;;;;;;12.77;5.75;;;;;14.70;93735.00;;;;7402898;19;20484;-82
2023/08/27 00:57:54;;;;;;;9.75;5.60;;;;;14.70;93729.00;;;;7404282;19;20596;-83
2023/08/27 01:00:29;;;;;;;7.13;5.07;;;;;14.60;93719.00;;;;7402395;19;20628;-82
2023/08/27 01:03:05;;;;;;;6.30;5.35;;;;;14.70;93721.00;;;;7401924;19;20164;-83
2023/08/27 01:05:40;;;;;;;9.50;5.18;;;;;14.70;93715.00;;;;7402328;19;20132;-82
2023/08/27 01:08:28;;;;;;;6.97;5.90;;;;;14.80;93709.00;;;;7399882;19;20152;-81
2023/08/27 01:11:21;;;;;;;8.50;5.30;;;;;14.70;93699.00;;;;7403116;19;20207;-82
2023/08/27 01:14:06;;;;;;;12.93;5.40;;;;;14.60;93694.00;;;;7397480;19;20210;-82
2023/08/27 01:16:42;;;;;;;10.38;5.38;;;;;14.70;93703.00;;;;7401190;19;20152;-82
2023/08/27 01:19:14;;;;;;;8.07;4.85;;;;;14.70;93704.00;;;;7403301;19;20136;-80
2023/08/27 01:21:48;;;;;;;5.93;4.57;;;;;14.70;93699.00;;;;7397019;19;20140;-83
2023/08/27 01:24:24;;;;;;;5.70;4.10;;;;;14.70;93671.00;;;;7399854;19;20155;-81
2023/08/27 01:27:09;;;;;;;10.05;4.43;;;;;14.80;93667.00;;;;7400147;19;20614;-81
2023/08/27 01:29:51;;;;;;;6.25;4.38;;;;;14.70;93699.00;;;;7401591;19;20141;-80
2023/08/27 01:32:47;;;;;;;9.45;4.45;;;;;14.70;93683.00;;;;7400487;19;20152;-81
2023/08/27 01:35:21;;;;;;;10.05;4.53;;;;;14.60;93683.00;;;;7398095;19;20141;-82
2023/08/27 01:37:49;;;;;;;10.50;4.30;;;;;14.60;93676.00;;;;7402788;19;20141;-82
2023/08/27 01:40:27;;;;;;;12.80;3.75;;;;;14.70;93675.00;;;;7402443;19;20148;-82
2023/08/27 01:43:02;;;;;;;8.75;4.30;;;;;14.70;93680.00;;;;7403284;19;20125;-83
2023/08/27 01:45:36;;;;;;;12.77;4.30;;;;;14.70;93687.00;;;;7401491;19;20201;-82
2023/08/27 01:48:14;;;;;;;9.95;4.60;;;;;14.70;93690.00;;;;7400600;19;20140;-82
2023/08/27 01:50:42;;;;;;;8.32;3.97;;;;;14.70;93696.00;;;;7401303;19;20149;-83
2023/08/27 01:53:23;;;;;;;11.05;4.32;;;;;14.70;93692.00;;;;7401606;19;20308;-82
2023/08/27 01:55:58;;;;;;;7.70;4.10;;;;;14.70;93702.00;;;;7402261;19;20223;-83
2023/08/27 01:58:28;;;;;;;5.40;4.00;;;;;14.70;93697.00;;;;7399480;19;20515;-83
2023/08/27 02:01:03;;;;;;;8.18;3.67;;;;;14.70;93693.00;;;;7399117;19;20172;-83
2023/08/27 02:03:40;;;;;;;5.13;3.75;;;;;14.80;93684.00;;;;7401584;19;20133;-82
2023/08/27 02:06:28;;;;;;;9.27;3.90;;;;;14.70;93674.00;;;;7400232;19;20139;-82
2023/08/27 02:09:04;;;;;;;6.55;3.53;;;;;14.70;93653.00;;;;7398454;19;20220;-82
2023/08/27 02:11:42;;;;;;;4.75;3.63;;;;;14.60;93639.00;;;;7400780;19;21012;-82
2023/08/27 02:14:17;;;;;;;8.10;3.70;;;;;14.70;93627.00;;;;7398066;19;20227;-83
2023/08/27 02:16:47;;;;;;;5.32;3.45;;;;;14.70;93625.00;;;;7400955;19;20129;-82
2023/08/27 02:19:24;;;;;;;6.20;3.40;;;;;14.60;93636.00;;;;7399760;19;20151;-82
2023/08/27 02:22:01;;;;;;;7.47;3.22;;;;;14.60;93640.00;;;;7400413;19;20157;-81
2023/08/27 02:24:35;;;;;;;7.28;3.30;;;;;14.60;93651.00;;;;7401008;19;20129;-82
2023/08/27 02:27:09;;;;;;;5.63;3.65;;;;;14.50;93649.00;;;;7398270;19;20390;-81
2023/08/27 02:29:43;;;;;;;5.88;2.88;;;;;14.60;93639.00;;;;7401037;19;20140;-82
2023/08/27 02:32:11;;;;;;;4.68;3.85;;;;;14.60;93643.00;;;;7399055;19;20530;-82
2023/08/27 02:34:45;;;;;;;4.10;3.03;;;;;14.50;93655.00;;;;7400786;19;20192;-82
2023/08/27 02:37:12;;;;;;;5.25;3.42;;;;;14.50;93665.00;;;;7398831;19;20169;-84
2023/08/27 02:39:47;;;;;;;4.07;3.50;;;;;14.50;93657.00;;;;7400422;19;20156;-81
2023/08/27 02:42:15;;;;;;;6.50;3.00;;;;;14.50;93654.00;;;;7399742;19;20133;-82
2023/08/27 02:44:42;;;;;;;6.20;3.30;;;;;14.50;93667.00;;;;7399796;19;20137;-83
2023/08/27 02:47:21;;;;;;;7.97;3.08;;;;;14.40;93668.00;;;;7398820;19;20152;-83
2023/08/27 02:49:49;;;;;;;8.65;3.38;;;;;14.40;93660.00;;;;7399944;19;20153;-83
2023/08/27 02:52:24;;;;;;;3.97;3.20;;;;;14.30;93665.00;;;;7398497;19;20132;-83
2023/08/27 02:54:55;;;;;;;7.78;3.50;;;;;14.30;93658.00;;;;7400371;19;20511;-84
2023/08/27 02:57:30;;;;;;;7.28;3.33;;;;;14.30;93654.00;;;;7400716;19;20500;-85
2023/08/27 03:00:12;;;;;;;6.10;3.17;;;;;14.30;93647.00;;;;7400585;19;20184;-83
2023/08/27 03:02:47;;;;;;;4.55;3.03;;;;;14.30;93651.00;;;;7398675;19;20152;-83
2023/08/27 03:05:23;;;;;;;7.28;3.47;;;;;14.20;93637.00;;;;7400327;19;20164;-83
2023/08/27 03:07:58;;;;;;;6.97;3.55;;;;;14.20;93657.00;;;;7399478;19;20151;-83
2023/08/27 03:10:39;;;;;;;12.45;3.97;;;;;14.00;93647.00;;;;7400521;19;20584;-83
2023/08/27 03:13:13;;;;;;;6.38;3.25;;;;;14.00;93651.00;;;;7400359;19;20149;-84
2023/08/27 03:15:41;;;;;;;8.48;4.57;;;;;14.10;93658.00;;;;7397790;19;20155;-84
2023/08/27 03:18:18;;;;;;;7.72;3.63;;;;;14.10;93652.00;;;;7398335;19;20201;-84
2023/08/27 03:20:46;;;;;;;4.75;3.90;;;;;14.20;93659.00;;;;7396615;19;20160;-84
2023/08/27 03:23:20;;;;;;;7.63;3.50;;;;;14.20;93646.00;;;;7396428;19;20158;-83
2023/08/27 03:25:54;;;;;;;6.85;3.72;;;;;14.20;93633.00;;;;7398725;19;20152;-85
2023/08/27 03:28:33;;;;;;;8.80;4.40;;;;;14.20;93616.00;;;;7397340;19;20147;-83
2023/08/27 03:31:06;;;;;;;8.05;4.55;;;;;14.30;93615.00;;;;7397698;19;20136;-83
2023/08/27 03:33:40;;;;;;;5.85;4.30;;;;;14.30;93612.00;;;;7397657;19;20619;-84
2023/08/27 03:36:08;;;;;;;5.78;4.30;;;;;14.20;93619.00;;;;7398119;19;20498;-86
2023/08/27 03:38:49;;;;;;;8.98;4.50;;;;;14.20;93617.00;;;;7396925;19;20161;-86
2023/08/27 03:41:17;;;;;;;6.68;4.68;;;;;14.20;93615.00;;;;7397971;19;20508;-84
2023/08/27 03:43:52;;;;;;;7.68;4.30;;;;;14.10;93619.00;;;;7398225;19;20149;-85
2023/08/27 03:46:20;;;;;;;10.02;4.68;;;;;14.10;93626.00;;;;7396639;19;20196;-84
2023/08/27 03:48:54;;;;;;;6.70;5.10;;;;;14.10;93629.00;;;;7399132;19;20133;-86
2023/08/27 03:51:28;;;;;;;8.40;5.43;;;;;14.10;93614.00;;;;7397734;19;20135;-85
2023/08/27 03:54:05;;;;;;;7.93;4.88;;;;;14.10;93617.00;;;;7397076;19;20172;-85
2023/08/27 03:56:34;;;;;;;9.45;5.50;;;;;14.10;93616.00;;;;7396945;19;20139;-85
2023/08/27 03:59:10;;;;;;;6.88;5.13;;;;;14.10;93610.00;;;;7403123;19;20664;-85
2023/08/27 04:01:46;;;;;;;8.20;4.70;;;;;14.10;93612.00;;;;7402496;19;20761;-85
2023/08/27 04:04:25;;;;;;;9.13;5.25;;;;;14.10;93627.00;;;;7403739;19;20144;-85
2023/08/27 04:07:06;;;;;;;8.07;5.03;;;;;14.10;93622.00;;;;7405848;19;20144;-85
2023/08/27 04:09:48;;;;;;;6.05;5.10;;;;;13.90;93624.00;;;;7402103;19;20153;-84
2023/08/27 04:12:24;;;;;;;8.48;5.10;;;;;14.00;93600.00;;;;7404009;19;20137;-86
2023/08/27 04:15:00;;;;;;;12.02;6.03;;;;;14.00;93610.00;;;;7401168;19;20136;-86
2023/08/27 04:17:29;;;;;;;9.77;5.50;;;;;14.10;93604.00;;;;7402506;19;20151;-84
2023/08/27 04:20:04;;;;;;;11.65;5.75;;;;;14.20;93620.00;;;;7401790;19;20168;-84
2023/08/27 04:22:33;;;;;;;9.18;5.63;;;;;14.10;93623.00;;;;7405367;19;20145;-84
2023/08/27 04:25:00;;;;;;;7.68;6.07;;;;;14.00;93625.00;;;;7402470;19;20213;-84
2023/08/27 04:27:35;;;;;;;8.52;5.00;;;;;13.80;93616.00;;;;7404476;19;20493;-86
2023/08/27 04:30:04;;;;;;;10.05;4.78;;;;;13.70;93605.00;;;;7399072;19;20141;-85
2023/08/27 04:32:38;;;;;;;11.93;4.70;;;;;13.80;93612.00;;;;7402522;19;20616;-85
2023/08/27 04:35:06;;;;;;;9.95;5.60;;;;;13.80;93599.00;;;;7404308;19;20592;-84
2023/08/27 04:37:40;;;;;;;6.35;4.53;;;;;13.80;93577.00;;;;7400612;19;20136;-84
2023/08/27 04:40:11;;;;;;;6.05;4.72;;;;;13.80;93571.00;;;;7402394;19;20240;-83
2023/08/27 04:42:47;;;;;;;6.38;4.63;;;;;13.80;93583.00;;;;7402216;19;20133;-83
2023/08/27 04:45:15;;;;;;;9.68;5.07;;;;;13.80;93590.00;;;;7403547;19;20137;-83
2023/08/27 04:47:43;;;;;;;6.18;4.82;;;;;13.80;93586.00;;;;7400424;19;20140;-83
2023/08/27 04:50:21;;;;;;;6.75;4.40;;;;;13.80;93594.00;;;;7398184;19;20152;-84
2023/08/27 04:52:49;;;;;;;6.13;4.70;;;;;13.90;93588.00;;;;7402612;19;20149;-84
2023/08/27 04:55:24;;;;;;;5.82;4.32;;;;;13.90;93591.00;;;;7403446;19;20231;-84
2023/08/27 04:57:58;;;;;;;6.18;5.20;;;;;13.90;93602.00;;;;7402026;19;20159;-84
2023/08/27 05:00:32;;;;;;;8.68;4.43;;;;;13.90;93619.00;;;;7402846;19;20128;-83
2023/08/27 05:03:01;;;;;;;5.50;4.70;;;;;13.90;93623.00;;;;7400441;19;20145;-83
2023/08/27 05:05:36;;;;;;;9.85;5.20;;;;;13.90;93625.00;;;;7402410;19;20526;-83
2023/08/27 05:08:10;;;;;;;9.10;4.90;;;;;14.00;93624.00;;;;7400093;19;20151;-88
2023/08/27 05:10:54;;;;;;;20.08;5.35;;;;;13.90;93624.00;;;;7401558;19;20148;-87
2023/08/27 05:13:33;;;;;;;7.25;5.65;;;;;13.90;93624.00;;;;7403505;19;20208;-88
2023/08/27 05:16:08;;;;;;;11.32;6.15;;;;;13.80;93621.00;;;;7401579;19;20140;-88
2023/08/27 05:18:38;;;;;;;10.15;4.80;;;;;13.80;93605.00;;;;7401746;19;20157;-88
2023/08/27 05:21:12;;;;;;;9.43;4.95;;;;;13.70;93597.00;;;;7403357;19;20137;-88
2023/08/27 05:23:40;;;;;;;11.30;5.30;;;;;13.80;93602.00;;;;7401226;19;20141;-87
2023/08/27 05:26:15;;;;;;;8.10;4.72;;;;;13.70;93594.00;;;;7401252;19;20701;-88
2023/08/27 05:28:46;;;;;;;8.07;5.38;;;;;13.70;93598.00;;;;7403703;19;20471;-88
2023/08/27 05:31:14;;;;;;;5.97;5.22;;;;;13.80;93599.00;;;;7403447;19;20141;-88
2023/08/27 05:33:48;;;;;;;7.80;5.47;;;;;13.60;93608.00;;;;7402756;19;20140;-88
2023/08/27 05:36:17;;;;;;;7.55;5.07;;;;;13.80;93614.00;;;;7402042;19;20156;-88
2023/08/27 05:38:52;;;;;;;7.68;5.25;;;;;13.70;93624.00;;;;7402188;19;20749;-87
2023/08/27 05:41:26;;;;;;;7.68;5.18;;;;;13.80;93612.00;;;;7402800;19;20170;-88
2023/08/27 05:44:03;;;;;;;8.63;5.25;;;;;13.80;93607.00;;;;7402369;19;20590;-88
2023/08/27 05:46:39;;;;;;;10.25;5.70;;;;;13.80;93602.00;;;;7401446;19;20743;-87
2023/08/27 05:49:14;;;;;;;7.53;5.30;;;;;13.80;93603.00;;;;7403327;19;20128;-88
2023/08/27 05:51:45;;;;;;;7.90;5.43;;;;;13.90;93599.00;;;;7402262;19;20144;-87
2023/08/27 05:54:19;;;;;;;6.35;5.30;;;;;13.90;93595.00;;;;7399497;19;20159;-88
2023/08/27 05:56:47;;;;;;;6.43;5.10;;;;;14.00;93594.00;;;;7401845;19;20588;-88
2023/08/27 05:59:22;;;;;;;6.53;5.13;;;;;14.20;93594.00;;;;7400647;19;20144;-87
2023/08/27 06:01:51;;;;;;;5.65;4.88;;;;;14.20;93585.00;;;;7401365;19;20157;-88
2023/08/27 06:04:25;;;;;;;7.18;5.20;;;;;14.30;93588.00;;;;7400475;19;20148;-87
2023/08/27 06:07:07;;;;;;;5.53;4.90;;;;;14.20;93585.00;;;;7398971;19;20141;-87
2023/08/27 06:09:42;;;;;;;5.80;4.57;;;;;14.40;93575.00;;;;7399944;19;20185;-87
2023/08/27 06:12:09;;;;;;;10.73;4.40;;;;;14.20;93560.00;;;;7399400;19;20164;-88
2023/08/27 06:14:51;;;;;;;6.00;4.43;;;;;14.40;93553.00;;;;7399806;19;20161;-87
2023/08/27 06:17:26;;;;;;;5.13;4.55;;;;;14.50;93557.00;;;;7398834;19;20128;-81
2023/08/27 06:19:56;;;;;;;8.07;4.05;;;;;14.30;93576.00;;;;7398838;19;20140;-83
2023/08/27 06:22:33;;;;;;;6.00;3.95;;;;;14.20;93574.00;;;;7395029;19;20155;-84
2023/08/27 06:25:01;;;;;;;6.07;3.95;;;;;14.30;93590.00;;;;7399555;19;20128;-84
2023/08/27 06:27:35;;;;;;;5.95;3.65;;;;;14.40;93597.00;;;;7397503;19;20200;-84
2023/08/27 06:30:11;;;;;;;4.60;4.20;;;;;14.50;93598.00;;;;7395983;19;20140;-84
2023/08/27 06:32:46;;;;;;;6.63;4.00;;;;;14.60;93613.00;;;;7398067;19;20568;-84
2023/08/27 06:35:20;;;;;;;4.38;3.65;;;;;14.60;93608.00;;;;7398648;19;20518;-83
2023/08/27 06:37:52;;;;;;;3.90;3.50;;;;;14.60;93619.00;;;;7398283;19;20149;-83
2023/08/27 06:40:29;;;;;;;6.13;4.00;;;;;14.70;93622.00;;;;7401045;19;20496;-83
2023/08/27 06:42:57;;;;;;;4.10;3.70;;;;;14.70;93617.00;;;;7401010;19;20504;-83
2023/08/27 06:45:27;;;;;;;4.75;3.58;;;;;14.80;93617.00;;;;7400503;19;20608;-85
2023/08/27 06:48:02;;;;;;;6.90;3.58;;;;;14.80;93613.00;;;;7393827;19;20471;-84
2023/08/27 06:50:36;;;;;;;4.95;3.53;;;;;14.80;93609.00;;;;7396029;19;20255;-84
2023/08/27 06:53:11;;;;;;;5.63;3.72;;;;;14.90;93595.00;;;;7400364;19;20208;-83
2023/08/27 06:55:46;;;;;;;8.10;3.40;;;;;14.90;93581.00;;;;7394955;19;20144;-85
2023/08/27 06:58:20;;;;;;;4.85;3.33;;;;;15.10;93579.00;;;;7391327;19;20124;-84
2023/08/27 07:00:48;;;;;;;3.75;3.30;;;;;15.10;93574.00;;;;7389379;19;20176;-88
2023/08/27 07:03:17;;;;;;;8.27;3.15;;;;;15.20;93583.00;;;;7391141;19;20140;-88
2023/08/27 07:05:52;;;;;;;4.75;2.95;;;;;15.40;93576.00;;;;7392094;19;20597;-87
2023/08/27 07:08:20;;;;;;;3.40;3.10;;;;;15.50;93584.00;;;;7393831;19;20184;-88
2023/08/27 07:10:59;;;;;;;4.18;3.25;;;;;15.70;93584.00;;;;7392077;19;20196;-87
2023/08/27 07:13:27;;;;;;;4.13;2.85;;;;;15.70;93581.00;;;;7390855;19;20167;-86
2023/08/27 07:16:02;;;;;;;4.90;3.10;;;;;15.70;93581.00;;;;7389645;19;20151;-87
2023/08/27 07:18:38;;;;;;;3.45;2.88;;;;;15.80;93566.00;;;;7391874;19;20164;-87
2023/08/27 07:21:13;;;;;;;7.93;2.92;;;;;16.00;93568.00;;;;7390830;19;20155;-87
2023/08/27 07:23:40;;;;;;;4.70;3.00;;;;;15.90;93583.00;;;;7386825;19;20152;-87
2023/08/27 07:26:11;;;;;;;3.92;2.50;;;;;16.20;93579.00;;;;7392764;19;20191;-86
2023/08/27 07:28:46;;;;;;;5.60;2.80;;;;;16.10;93584.00;;;;7394649;19;20614;-90
2023/08/27 07:31:14;;;;;;;5.25;2.55;;;;;16.20;93600.00;;;;7396087;19;20586;-91
2023/08/27 07:33:50;;;;;;;3.47;2.70;;;;;16.20;93606.00;;;;7397386;19;21066;-91
2023/08/27 07:36:18;;;;;;;5.70;2.60;;;;;15.90;93594.00;;;;7401096;19;20148;-88
2023/08/27 07:38:54;;;;;;;4.05;2.42;;;;;16.00;93585.00;;;;7398278;19;20617;-89
2023/08/27 07:41:21;;;;;;;3.90;2.40;;;;;16.30;93588.00;;;;7399731;19;20156;-86
2023/08/27 07:43:56;;;;;;;3.92;2.30;;;;;16.30;93603.00;;;;7394994;19;20132;-88
2023/08/27 07:46:24;;;;;;;3.28;2.45;;;;;16.10;93610.00;;;;7399452;19;20545;-87
2023/08/27 07:48:58;;;;;;;6.20;2.63;;;;;16.00;93625.00;;;;7397860;19;20140;-88
2023/08/27 07:51:33;;;;;;;6.20;2.80;;;;;16.10;93644.00;;;;7402928;19;20180;-87
2023/08/27 07:54:09;;;;;;;4.75;2.60;;;;;16.10;93646.00;;;;7413627;19;20140;-88
2023/08/27 07:56:45;;;;;;;5.50;2.40;;;;;16.20;93644.00;;;;7413754;19;20141;-89
2023/08/27 07:59:22;;;;;;;4.35;2.50;;;;;16.00;93652.00;;;;7402192;19;20473;-89
2023/08/27 08:01:57;;;;;;;4.72;2.53;;;;;16.00;93651.00;;;;7399913;19;20603;-87
2023/08/27 08:04:46;;;;;;;4.63;2.40;;;;;16.10;93665.00;;;;7397435;19;20132;-89
2023/08/27 08:07:14;;;;;;;2.50;2.08;;;;;16.10;93670.00;;;;7395953;19;20188;-89
2023/08/27 08:09:59;;;;;;;5.68;2.53;;;;;16.10;93658.00;;;;7398867;19;20139;-89
2023/08/27 08:12:34;;;;;;;3.72;2.33;;;;;16.30;93668.00;;;;7399268;19;20157;-88
2023/08/27 08:15:09;;;;;;;9.82;2.60;;;;;16.40;93671.00;;;;7397789;19;20124;-88
2023/08/27 08:17:44;;;;;;;7.03;2.22;;;;;16.60;93664.00;;;;7395419;19;20147;-89
2023/08/27 08:20:14;;;;;;;3.60;2.40;;;;;16.20;93667.00;;;;7399698;19;20125;-88
2023/08/27 08:22:49;;;;;;;2.38;2.00;;;;;16.60;93663.00;;;;7396572;19;20158;-89
2023/08/27 08:25:18;;;;;;;3.95;2.47;;;;;16.80;93652.00;;;;7396765;19;20133;-88
2023/08/27 08:27:56;;;;;;;3.45;2.50;;;;;16.80;93651.00;;;;7395611;19;20518;-88
2023/08/27 08:30:31;;;;;;;5.68;2.10;;;;;16.80;93647.00;;;;7396499;19;20572;-89
2023/08/27 08:33:00;;;;;;;7.05;2.30;;;;;16.80;93657.00;;;;7399646;19;20136;-89
2023/08/27 08:35:35;;;;;;;5.22;2.65;;;;;16.80;93666.00;;;;7395732;19;20603;-88
2023/08/27 08:38:09;;;;;;;2.75;1.77;;;;;16.80;93669.00;;;;7397926;19;20148;-84
2023/08/27 08:40:45;;;;;;;3.67;2.38;;;;;16.80;93675.00;;;;7395140;19;20151;-84
2023/08/27 08:43:34;;;;;;;7.40;2.30;;;;;16.80;93674.00;;;;7394113;19;20156;-85
2023/08/27 08:46:09;;;;;;;3.95;2.25;;;;;16.90;93679.00;;;;7393905;19;20153;-86
2023/08/27 08:48:49;;;;;;;4.82;2.70;;;;;16.40;93687.00;;;;7394946;19;20171;-85
2023/08/27 08:51:29;;;;;;;5.93;2.10;;;;;16.10;93672.00;;;;7390742;19;20129;-86
2023/08/27 08:54:09;;;;;;;2.47;2.22;;;;;16.50;93683.00;;;;7395545;19;20480;-85
2023/08/27 08:56:44;;;;;;;3.67;2.17;;;;;16.70;93672.00;;;;7392848;19;20152;-86
2023/08/27 08:59:20;;;;;;;8.02;2.33;;;;;16.70;93660.00;;;;7392774;19;20169;-86
2023/08/27 09:01:55;;;;;;;5.07;1.98;;;;;16.70;93646.00;;;;7392515;19;20186;-86
2023/08/27 09:04:31;;;;;;;5.53;2.38;;;;;17.20;93655.00;;;;7390335;19;20128;-86
2023/08/27 09:07:06;;;;;;;5.13;2.38;;;;;17.10;93646.00;;;;7392470;19;20196;-86
2023/08/27 09:09:48;;;;;;;5.65;2.78;;;;;17.50;93635.00;;;;7392397;19;20152;-85
2023/08/27 09:12:23;;;;;;;3.42;2.42;;;;;17.70;93623.00;;;;7392615;19;20565;-85
2023/08/27 09:14:58;;;;;;;4.47;2.35;;;;;17.90;93621.00;;;;7392891;19;20136;-86
2023/08/27 09:17:36;;;;;;;3.10;2.13;;;;;17.30;93623.00;;;;7392282;19;21057;-88
2023/08/27 09:20:07;;;;;;;5.40;2.38;;;;;17.10;93620.00;;;;7394541;19;20140;-86
2023/08/27 09:22:42;;;;;;;3.60;2.30;;;;;17.90;93622.00;;;;7394113;19;20132;-87
2023/08/27 09:25:10;;;;;;;2.38;2.17;;;;;18.10;93608.00;;;;7393545;19;20217;-87
2023/08/27 09:27:46;;;;;;;5.40;2.25;;;;;18.20;93602.00;;;;7394467;19;20595;-87
2023/08/27 09:30:22;;;;;;;9.55;2.53;;;;;18.30;93602.00;;;;7395309;19;20129;-87
2023/08/27 09:32:58;;;;;;;3.50;2.40;;;;;19.00;93605.00;;;;7393229;19;20148;-86
2023/08/27 09:35:41;;;;;;;4.93;2.08;;;;;19.20;93612.00;;;;7394012;19;20621;-87
2023/08/27 09:38:16;;;;;;;7.95;2.20;;;;;19.30;93614.00;;;;7394371;19;20121;-88
2023/08/27 09:40:53;;;;;;;5.10;2.00;;;;;18.60;93606.00;;;;7396676;19;20590;-84
2023/08/27 09:43:27;;;;;;;3.50;2.30;;;;;18.90;93606.00;;;;7393571;19;20121;-85
2023/08/27 09:46:07;;;;;;;2.50;2.00;;;;;19.70;93611.00;;;;7393527;19;20147;-85
2023/08/27 09:48:35;;;;;;;8.75;2.20;;;;;18.60;93608.00;;;;7393618;19;20180;-87
2023/08/27 09:51:18;;;;;;;3.47;1.80;;;;;18.80;93616.00;;;;7398371;19;20608;-86
2023/08/27 09:53:52;;;;;;;6.80;2.00;;;;;19.30;93608.00;;;;7399713;19;20127;-91
2023/08/27 09:56:27;;;;;;;5.18;2.60;;;;;19.90;93595.00;;;;7393871;19;20151;-88
2023/08/27 09:59:05;;;;;;;8.10;2.30;;;;;20.30;93601.00;;;;7397082;19;20125;-87
2023/08/27 10:01:40;;;;;;;6.22;1.90;;;;;20.40;93602.00;;;;7397509;19;20156;-87
2023/08/27 10:04:17;;;;;;;2.42;2.10;;;;;20.30;93615.00;;;;7394598;19;20150;-88
2023/08/27 10:06:47;;;;;;;5.00;2.30;;;;;20.40;93616.00;;;;7396136;19;20149;-87
2023/08/27 10:09:28;;;;;;;3.65;2.45;;;;;20.80;93606.00;;;;7398024;19;21304;-87
2023/08/27 10:11:56;;;;;;;4.55;2.40;;;;;19.80;93614.00;;;;7397272;19;20121;-87
2023/08/27 10:14:32;;;;;;;4.15;3.13;;;;;20.00;93605.00;;;;7394950;19;20246;-85
2023/08/27 10:17:00;;;;;;;3.80;2.10;;;;;20.40;93602.00;;;;7397008;19;20172;-85
2023/08/27 10:19:35;;;;;;;8.30;2.55;;;;;20.10;93610.00;;;;7395721;19;20148;-86
2023/08/27 10:22:12;;;;;;;7.50;2.15;;;;;19.90;93613.00;;;;7394978;19;20169;-86
2023/08/27 10:24:47;;;;;;;6.00;2.28;;;;;20.50;93603.00;;;;7397448;19;20136;-85
2023/08/27 10:27:16;;;;;;;5.32;2.45;;;;;20.60;93600.00;;;;7394653;19;20713;-85
2023/08/27 10:29:45;;;;;;;7.00;2.45;;;;;20.90;93611.00;;;;7399072;19;20129;-86
2023/08/27 10:32:20;;;;;;;7.10;2.40;;;;;21.10;93605.00;;;;7398577;19;20155;-85
2023/08/27 10:34:48;;;;;;;4.93;2.60;;;;;20.90;93603.00;;;;7394060;19;20149;-85
2023/08/27 10:37:23;;;;;;;5.13;2.78;;;;;21.10;93607.00;;;;7393735;19;20143;-86
2023/08/27 10:39:53;;;;;;;3.60;2.42;;;;;21.10;93606.00;;;;7395127;19;20155;-86
2023/08/27 10:42:32;;;;;;;3.83;1.95;;;;;21.00;93616.00;;;;7391027;19;20155;-84
2023/08/27 10:45:17;;;;;;;5.28;2.47;;;;;21.00;93622.00;;;;7396277;19;20583;-84
2023/08/27 10:48:19;;;;;;;4.40;2.17;;;;;21.00;93603.00;;;;7392186;19;20125;-85
2023/08/27 10:51:11;;;;;;;2.78;2.03;;;;;21.10;93588.00;;;;7390774;19;20149;-84
2023/08/27 10:53:56;;;;;;;3.15;2.47;;;;;21.10;93605.00;;;;7396008;19;20133;-84
2023/08/27 10:56:40;;;;;;;3.55;1.98;;;;;21.40;93598.00;;;;7394022;19;20214;-83
2023/08/27 10:59:28;;;;;;;5.45;2.28;;;;;22.00;93600.00;;;;7395103;19;20153;-84
2023/08/27 11:02:10;;;;;;;2.42;1.80;;;;;21.90;93600.00;;;;7394614;19;20184;-82
2023/08/27 11:04:41;;;;;;;3.30;1.70;;;;;22.40;93597.00;;;;7395891;19;20124;-83
2023/08/27 11:07:29;;;;;;;3.75;2.17;;;;;22.30;93596.00;;;;7393607;19;20735;-84
2023/08/27 11:10:05;;;;;;;4.57;2.10;;;;;22.20;93592.00;;;;7392651;19;20160;-83
2023/08/27 11:12:57;;;;;;;5.35;2.35;;;;;21.80;93603.00;;;;7393097;19;20148;-84
2023/08/27 11:15:37;;;;;;;2.55;1.95;;;;;21.80;93621.00;;;;7392297;19;20588;-83
2023/08/27 11:18:21;;;;;;;3.58;2.00;;;;;21.00;93625.00;;;;7391571;19;20153;-84
2023/08/27 11:20:51;;;;;;;1.90;1.60;;;;;20.20;93629.00;;;;7390014;19;20147;-89
2023/08/27 11:23:26;;;;;;;2.60;1.80;;;;;19.80;93633.00;;;;7391551;19;20131;-84
2023/08/27 11:26:02;;;;;;;4.43;2.10;;;;;19.70;93633.00;;;;7399088;19;20171;-89
2023/08/27 11:28:38;;;;;;;2.80;2.08;;;;;19.20;93632.00;;;;7394270;19;20203;-89
2023/08/27 11:31:09;;;;;;;4.85;2.50;;;;;18.90;93625.00;;;;7400447;19;20148;-89
2023/08/27 11:33:43;;;;;;;5.50;2.25;;;;;19.10;93635.00;;;;7397428;19;20124;-89
2023/08/27 11:36:16;;;;;;;5.32;2.63;;;;;19.50;93627.00;;;;7398099;19;20204;-89
2023/08/27 11:38:59;;;;;;;4.07;1.92;;;;;19.70;93622.00;;;;7397863;19;20203;-89
2023/08/27 11:41:36;;;;;;;6.68;2.40;;;;;19.90;93623.00;;;;7399710;19;20490;-89
2023/08/27 11:44:11;;;;;;;8.63;2.58;;;;;20.20;93625.00;;;;7398774;19;20133;-89
2023/08/27 11:46:51;;;;;;;3.95;2.45;;;;;20.30;93635.00;;;;7398343;19;20148;-88
2023/08/27 11:49:32;;;;;;;6.80;2.30;;;;;20.00;93629.00;;;;7398822;19;20168;-89
2023/08/27 11:52:06;;;;;;;8.55;2.70;;;;;19.70;93623.00;;;;7397996;19;20592;-89
2023/08/27 11:54:35;;;;;;;7.45;2.38;;;;;19.60;93623.00;;;;7396536;19;20168;-89
2023/08/27 11:57:09;;;;;;;6.45;2.60;;;;;19.90;93605.00;;;;7397123;19;20168;-89
2023/08/27 11:59:46;;;;;;;7.65;2.10;;;;;20.30;93612.00;;;;7396967;19;20148;-89
2023/08/27 12:02:17;;;;;;;3.63;2.25;;;;;20.20;93611.00;;;;7398168;19;20180;-88
2023/08/27 12:04:52;;;;;;;3.10;2.10;;;;;20.40;93609.00;;;;7397035;19;20144;-89
2023/08/27 12:07:35;;;;;;;4.13;2.03;;;;;20.50;93592.00;;;;7399548;19;20140;-89
2023/08/27 12:10:21;;;;;;;4.47;2.03;;;;;21.00;93588.00;;;;7396862;19;20149;-88
2023/08/27 12:12:49;;;;;;;5.18;2.22;;;;;21.50;93573.00;;;;7397601;19;20129;-89
2023/08/27 12:15:29;;;;;;;2.63;2.13;;;;;22.10;93563.00;;;;7397250;19;20153;-87
2023/08/27 12:18:12;;;;;;;6.28;2.35;;;;;22.90;93564.00;;;;7395495;19;20622;-88
2023/08/27 12:20:49;;;;;;;2.65;2.03;;;;;22.80;93576.00;;;;7400230;19;20149;-88
2023/08/27 12:23:25;;;;;;;4.30;1.80;;;;;23.40;93557.00;;;;7402999;19;20142;-87
2023/08/27 12:25:54;;;;;;;4.38;2.17;;;;;23.70;93557.00;;;;7403849;19;20184;-87
2023/08/27 12:28:28;;;;;;;3.17;2.20;;;;;23.90;93583.00;;;;7401737;19;20522;-88
2023/08/27 12:31:04;;;;;;;4.28;2.17;;;;;23.10;93603.00;;;;7402555;19;20152;-88
2023/08/27 12:33:39;;;;;;;2.38;2.15;;;;;22.30;93596.00;;;;7402044;19;20132;-88
2023/08/27 12:36:14;;;;;;;2.83;2.15;;;;;21.40;93600.00;;;;7401173;19;20156;-88
2023/08/27 12:38:41;;;;;;;3.10;2.10;;;;;20.80;93603.00;;;;7403003;19;20198;-88
2023/08/27 12:41:17;;;;;;;3.58;2.28;;;;;19.80;93596.00;;;;7404437;19;20125;-87
2023/08/27 12:43:44;;;;;;;7.00;2.40;;;;;19.70;93611.00;;;;7403383;19;20277;-88
2023/08/27 12:46:18;;;;;;;4.10;2.50;;;;;19.00;93627.00;;;;7401375;19;20155;-87
2023/08/27 12:48:52;;;;;;;2.45;2.00;;;;;18.30;93640.00;;;;7401252;19;20205;-86
2023/08/27 12:51:28;;;;;;;3.15;1.90;;;;;17.80;93635.00;;;;7400120;19;20611;-88
2023/08/27 12:53:56;;;;;;;3.90;1.98;;;;;17.60;93645.00;;;;7399606;19;20619;-88